Time;durP1;ratioP1;P1;durP2;ratioP2;P2;SDS_P1;SDS_P2;PMS_P1;PMS_P2;Temp;Humidity;BMP_temperature;BMP_pressure;BME280_temperature;BME280_humidity;BME280_pressure;Samples;Min_cycle;Max_cycle;Signal;HPM_P1;HPM_P2
2024/02/29 00:02:41;;;;;;;69.53;22.30;;;;;;;;;;5055739;28;20032;-69
2024/02/29 00:05:27;;;;;;;55.92;20.30;;;;;;;;;;5054734;28;20457;-69
2024/02/29 00:08:12;;;;;;;59.03;23.15;;;;;;;;;;5041719;28;20017;-69
2024/02/29 00:10:58;;;;;;;58.53;22.10;;;;;;;;;;5055638;28;20087;-69
2024/02/29 00:13:44;;;;;;;64.88;21.92;;;;;;;;;;5056092;28;20082;-69
2024/02/29 00:16:30;;;;;;;69.90;22.45;;;;;;;;;;5054879;28;20017;-69
2024/02/29 00:19:17;;;;;;;62.78;20.40;;;;;;;;;;5041521;28;20107;-69
2024/02/29 00:22:03;;;;;;;70.65;22.98;;;;;;;;;;5055238;28;20024;-69
2024/02/29 00:24:48;;;;;;;66.53;20.48;;;;;;;;;;5055102;28;20398;-69
2024/02/29 00:27:34;;;;;;;63.65;22.83;;;;;;;;;;5055248;28;20021;-69
2024/02/29 00:30:19;;;;;;;69.47;22.52;;;;;;;;;;5055132;28;20025;-69
2024/02/29 00:33:05;;;;;;;55.72;21.45;;;;;;;;;;5055713;28;20108;-69
2024/02/29 00:35:51;;;;;;;65.25;21.55;;;;;;;;;;5053942;28;20021;-69
2024/02/29 00:38:38;;;;;;;64.55;22.77;;;;;;;;;;5055068;28;20100;-69
2024/02/29 00:41:24;;;;;;;62.67;22.88;;;;;;;;;;5055093;28;20482;-69
2024/02/29 00:44:09;;;;;;;73.63;23.95;;;;;;;;;;5055046;28;20029;-69
2024/02/29 00:46:55;;;;;;;68.25;23.48;;;;;;;;;;5054994;28;20029;-69
2024/02/29 00:49:41;;;;;;;62.35;22.02;;;;;;;;;;5055502;28;20036;-69
2024/02/29 00:52:27;;;;;;;84.18;25.40;;;;;;;;;;5053746;28;20047;-69
2024/02/29 00:55:13;;;;;;;70.78;24.00;;;;;;;;;;5054537;28;20021;-69
2024/02/29 00:57:59;;;;;;;65.30;20.80;;;;;;;;;;5039502;28;20084;-69
2024/02/29 01:00:45;;;;;;;63.78;25.15;;;;;;;;;;5054103;28;20502;-69
2024/02/29 01:03:30;;;;;;;74.60;23.27;;;;;;;;;;5053949;28;20029;-69
2024/02/29 01:06:16;;;;;;;76.00;24.77;;;;;;;;;;5053659;28;20497;-69
2024/02/29 01:09:02;;;;;;;74.47;25.13;;;;;;;;;;5055337;28;20033;-69
2024/02/29 01:11:48;;;;;;;72.43;23.00;;;;;;;;;;5054848;28;20025;-69
2024/02/29 01:14:34;;;;;;;77.97;23.83;;;;;;;;;;5054376;28;20417;-69
2024/02/29 01:17:19;;;;;;;73.38;23.67;;;;;;;;;;5054730;28;20067;-69
2024/02/29 01:20:05;;;;;;;81.90;26.88;;;;;;;;;;5054324;28;20028;-69
2024/02/29 01:22:51;;;;;;;90.07;28.73;;;;;;;;;;5034481;28;20035;-69
2024/02/29 01:25:36;;;;;;;72.32;24.25;;;;;;;;;;5033245;28;20502;-69
2024/02/29 01:28:22;;;;;;;85.13;26.23;;;;;;;;;;5034891;28;20037;-69
2024/02/29 01:31:07;;;;;;;91.15;28.02;;;;;;;;;;5033299;28;20029;-69
2024/02/29 01:33:53;;;;;;;78.35;24.60;;;;;;;;;;5032862;28;20056;-69
2024/02/29 01:36:39;;;;;;;82.60;27.67;;;;;;;;;;5033265;28;20013;-69
2024/02/29 01:39:24;;;;;;;67.68;25.63;;;;;;;;;;5045477;28;20021;-69
2024/02/29 01:42:11;;;;;;;71.95;26.40;;;;;;;;;;5054128;28;20491;-69
2024/02/29 01:44:57;;;;;;;73.78;25.05;;;;;;;;;;5038630;28;20029;-69
2024/02/29 01:47:42;;;;;;;81.43;26.92;;;;;;;;;;5038024;28;20028;-69
2024/02/29 01:50:29;;;;;;;72.97;24.10;;;;;;;;;;5054548;28;20426;-69
2024/02/29 01:53:14;;;;;;;83.68;27.77;;;;;;;;;;5054136;28;20040;-69
2024/02/29 01:56:00;;;;;;;80.88;25.48;;;;;;;;;;5053757;28;20092;-69
2024/02/29 01:58:46;;;;;;;79.53;26.73;;;;;;;;;;5053578;28;20017;-69
2024/02/29 02:01:32;;;;;;;83.60;26.73;;;;;;;;;;5053398;28;20513;-69
2024/02/29 02:04:18;;;;;;;73.03;27.17;;;;;;;;;;5054039;28;20029;-69
2024/02/29 02:07:04;;;;;;;87.00;27.92;;;;;;;;;;5051986;28;20486;-69
2024/02/29 02:09:50;;;;;;;82.60;26.90;;;;;;;;;;5053917;28;20033;-69
2024/02/29 02:12:36;;;;;;;83.00;27.63;;;;;;;;;;5051129;28;20029;-69
2024/02/29 02:15:21;;;;;;;94.45;28.63;;;;;;;;;;5052358;28;20021;-69
2024/02/29 02:18:07;;;;;;;80.55;26.20;;;;;;;;;;5053843;28;20139;-69
2024/02/29 02:20:56;;;;;;;86.85;27.05;;;;;;;;;;5051190;28;20028;-69
2024/02/29 02:23:41;;;;;;;82.43;27.15;;;;;;;;;;5053030;28;20025;-69
2024/02/29 02:26:27;;;;;;;84.65;26.42;;;;;;;;;;5053493;28;20029;-69
2024/02/29 02:29:12;;;;;;;85.22;27.77;;;;;;;;;;5052717;28;20158;-69
2024/02/29 02:31:58;;;;;;;73.57;23.73;;;;;;;;;;5052185;28;20479;-69
2024/02/29 02:34:44;;;;;;;80.25;27.33;;;;;;;;;;5052775;28;20086;-69
2024/02/29 02:37:31;;;;;;;81.90;27.40;;;;;;;;;;5052838;28;20031;-69
2024/02/29 02:40:17;;;;;;;68.97;24.40;;;;;;;;;;5037407;28;20100;-69
2024/02/29 02:43:03;;;;;;;82.15;25.83;;;;;;;;;;5052321;28;20025;-69
2024/02/29 02:45:48;;;;;;;81.13;27.98;;;;;;;;;;5053528;28;20029;-69
2024/02/29 02:48:34;;;;;;;76.95;23.67;;;;;;;;;;5039377;28;20127;-69
2024/02/29 02:51:24;;;;;;;86.72;27.23;;;;;;;;;;5052399;28;20040;-69
2024/02/29 02:54:10;;;;;;;84.25;24.95;;;;;;;;;;5038535;28;20056;-69
2024/02/29 02:56:56;;;;;;;79.07;26.90;;;;;;;;;;5051947;28;20021;-69
2024/02/29 02:59:41;;;;;;;71.85;25.15;;;;;;;;;;5052408;28;20379;-69
2024/02/29 03:02:27;;;;;;;83.70;26.00;;;;;;;;;;5052175;28;20547;-69
2024/02/29 03:05:13;;;;;;;68.20;21.65;;;;;;;;;;5052306;28;20407;-69
2024/02/29 03:07:58;;;;;;;67.05;24.60;;;;;;;;;;5038349;28;20025;-69
2024/02/29 03:10:44;;;;;;;77.60;25.83;;;;;;;;;;5053153;28;20032;-69
2024/02/29 03:13:30;;;;;;;87.57;24.70;;;;;;;;;;5053270;28;20029;-69
2024/02/29 03:16:26;;;;;;;67.97;25.65;;;;;;;;;;5052252;28;20031;-69
2024/02/29 03:19:11;;;;;;;78.22;26.77;;;;;;;;;;5038385;28;20021;-69
2024/02/29 03:21:57;;;;;;;71.78;25.25;;;;;;;;;;5052209;28;20083;-69
2024/02/29 03:24:43;;;;;;;77.65;24.83;;;;;;;;;;5051778;28;20037;-69
2024/02/29 03:27:28;;;;;;;75.25;25.15;;;;;;;;;;5051731;28;20398;-69
2024/02/29 03:30:15;;;;;;;72.30;26.65;;;;;;;;;;5052605;28;20135;-69
2024/02/29 03:33:01;;;;;;;75.05;22.80;;;;;;;;;;5039341;28;20386;-69
2024/02/29 03:35:47;;;;;;;78.85;27.73;;;;;;;;;;5038930;28;20490;-69
2024/02/29 03:38:32;;;;;;;77.40;23.52;;;;;;;;;;5052636;28;20056;-69
2024/02/29 03:41:18;;;;;;;69.30;24.15;;;;;;;;;;5052328;28;20025;-69
2024/02/29 03:44:03;;;;;;;67.95;25.00;;;;;;;;;;5053313;28;20027;-69
2024/02/29 03:46:49;;;;;;;68.95;24.77;;;;;;;;;;5052337;28;20084;-69
2024/02/29 03:49:35;;;;;;;76.93;26.67;;;;;;;;;;5050877;28;20039;-69
2024/02/29 03:52:21;;;;;;;78.70;27.10;;;;;;;;;;5050814;28;20029;-69
2024/02/29 03:55:07;;;;;;;74.35;24.30;;;;;;;;;;5038008;28;20021;-69
2024/02/29 03:57:53;;;;;;;69.18;23.23;;;;;;;;;;5053408;28;20032;-69
2024/02/29 04:00:39;;;;;;;65.93;25.15;;;;;;;;;;5051649;28;20479;-69
2024/02/29 04:03:24;;;;;;;74.07;21.80;;;;;;;;;;5053576;28;20383;-69
2024/02/29 04:06:10;;;;;;;75.18;26.00;;;;;;;;;;5049617;28;20124;-69
2024/02/29 04:08:56;;;;;;;71.03;25.92;;;;;;;;;;5032601;28;20032;-69
2024/02/29 04:11:41;;;;;;;71.25;25.17;;;;;;;;;;5035098;28;20030;-69
2024/02/29 04:14:27;;;;;;;65.38;22.30;;;;;;;;;;5036369;28;20030;-69
2024/02/29 04:17:12;;;;;;;65.60;22.40;;;;;;;;;;5035524;28;20018;-69
2024/02/29 04:19:58;;;;;;;67.53;23.95;;;;;;;;;;5034689;28;20499;-69
2024/02/29 04:22:44;;;;;;;63.30;22.40;;;;;;;;;;5035402;28;20028;-69
2024/02/29 04:25:29;;;;;;;75.45;21.77;;;;;;;;;;5050972;28;20028;-69
2024/02/29 04:28:18;;;;;;;60.85;22.58;;;;;;;;;;5055954;28;20033;-69
2024/02/29 04:31:05;;;;;;;63.20;20.92;;;;;;;;;;5040002;28;20418;-69
2024/02/29 04:33:50;;;;;;;73.80;24.38;;;;;;;;;;5054363;28;20021;-69
2024/02/29 04:36:37;;;;;;;66.20;22.42;;;;;;;;;;5054184;28;20044;-69
2024/02/29 04:39:22;;;;;;;64.85;24.95;;;;;;;;;;5054454;28;20566;-69
2024/02/29 04:42:08;;;;;;;61.88;22.45;;;;;;;;;;5054972;28;20033;-69
2024/02/29 04:44:54;;;;;;;71.45;23.35;;;;;;;;;;5055187;28;20025;-69
2024/02/29 04:47:39;;;;;;;65.43;21.38;;;;;;;;;;5055396;28;20027;-69
2024/02/29 04:50:25;;;;;;;69.68;25.27;;;;;;;;;;5078266;22;20502;-67
2024/02/29 04:53:11;;;;;;;60.58;22.00;;;;;;;;;;5035250;28;20065;-67
2024/02/29 04:55:57;;;;;;;63.17;23.08;;;;;;;;;;5033858;28;20021;-67
2024/02/29 04:58:42;;;;;;;69.10;22.25;;;;;;;;;;5035025;28;20061;-67
2024/02/29 05:01:28;;;;;;;70.15;25.02;;;;;;;;;;5019300;28;20031;-67
2024/02/29 05:04:14;;;;;;;61.55;22.40;;;;;;;;;;5032987;28;20028;-67
2024/02/29 05:07:00;;;;;;;58.05;19.25;;;;;;;;;;5032560;28;20056;-67
2024/02/29 05:09:46;;;;;;;63.63;20.92;;;;;;;;;;5033482;28;20021;-67
2024/02/29 05:12:31;;;;;;;63.25;22.38;;;;;;;;;;5033605;28;20021;-67
2024/02/29 05:15:20;;;;;;;60.58;20.08;;;;;;;;;;5033594;28;20029;-67
2024/02/29 05:18:06;;;;;;;61.85;22.02;;;;;;;;;;5033429;28;20040;-67
2024/02/29 05:20:52;;;;;;;55.10;20.73;;;;;;;;;;5031831;28;20032;-67
2024/02/29 05:23:38;;;;;;;48.33;17.98;;;;;;;;;;5033550;28;20380;-67
2024/02/29 05:26:23;;;;;;;54.28;20.25;;;;;;;;;;5032648;28;20025;-67
2024/02/29 05:29:09;;;;;;;56.88;19.45;;;;;;;;;;5032404;28;20029;-67
2024/02/29 05:31:54;;;;;;;55.88;20.85;;;;;;;;;;5033464;28;20104;-67
2024/02/29 05:34:40;;;;;;;57.30;18.00;;;;;;;;;;5033341;28;20022;-67
2024/02/29 05:37:26;;;;;;;57.05;21.25;;;;;;;;;;5033093;28;20108;-67
2024/02/29 05:40:12;;;;;;;45.17;18.23;;;;;;;;;;5032923;28;20026;-67
2024/02/29 05:42:58;;;;;;;50.80;15.07;;;;;;;;;;5033405;28;20406;-67
2024/02/29 05:45:44;;;;;;;52.30;18.95;;;;;;;;;;5034084;28;20487;-67
2024/02/29 05:48:34;;;;;;;46.85;18.05;;;;;;;;;;5032942;28;20048;-67
2024/02/29 05:51:20;;;;;;;49.38;17.20;;;;;;;;;;5031146;28;20030;-67
2024/02/29 05:54:05;;;;;;;43.00;16.17;;;;;;;;;;5032299;28;20380;-67
2024/02/29 05:56:51;;;;;;;54.05;17.45;;;;;;;;;;5032416;28;20033;-67
2024/02/29 05:59:36;;;;;;;36.97;15.43;;;;;;;;;;5032455;28;20510;-67
2024/02/29 06:02:22;;;;;;;47.67;18.85;;;;;;;;;;5032207;28;20055;-67
2024/02/29 06:05:08;;;;;;;45.92;16.92;;;;;;;;;;5032284;28;20092;-67
2024/02/29 06:07:54;;;;;;;40.55;17.25;;;;;;;;;;5031814;28;20021;-68
2024/02/29 06:10:40;;;;;;;42.90;14.95;;;;;;;;;;5032313;28;20029;-67
2024/02/29 06:13:27;;;;;;;50.13;18.23;;;;;;;;;;5031535;28;20030;-67
2024/02/29 06:16:15;;;;;;;47.25;17.45;;;;;;;;;;5033495;28;20018;-67
2024/02/29 06:19:01;;;;;;;48.13;16.73;;;;;;;;;;5031109;28;20029;-67
2024/02/29 06:21:47;;;;;;;46.65;17.13;;;;;;;;;;5031116;28;20030;-67
2024/02/29 06:24:33;;;;;;;48.65;18.05;;;;;;;;;;5031396;28;20083;-67
2024/02/29 06:27:21;;;;;;;46.97;16.63;;;;;;;;;;5031464;28;20033;-67
2024/02/29 06:30:08;;;;;;;46.83;17.38;;;;;;;;;;5032224;28;20021;-67
2024/02/29 06:32:53;;;;;;;39.50;16.40;;;;;;;;;;5030047;28;20021;-67
2024/02/29 06:35:39;;;;;;;36.08;15.30;;;;;;;;;;5031764;28;20021;-67
2024/02/29 06:38:25;;;;;;;39.17;16.15;;;;;;;;;;5030464;28;20028;-67
2024/02/29 06:41:10;;;;;;;38.58;15.32;;;;;;;;;;5031972;28;20033;-67
2024/02/29 06:43:56;;;;;;;37.13;15.73;;;;;;;;;;5031475;28;20487;-67
2024/02/29 06:46:42;;;;;;;34.83;14.27;;;;;;;;;;5031356;28;20041;-67
2024/02/29 06:49:27;;;;;;;35.72;15.05;;;;;;;;;;5031414;28;20025;-67
2024/02/29 06:52:13;;;;;;;43.50;16.05;;;;;;;;;;5032993;28;20490;-67
2024/02/29 06:54:59;;;;;;;40.33;15.20;;;;;;;;;;5031641;28;20022;-67
2024/02/29 06:57:44;;;;;;;38.72;16.17;;;;;;;;;;5033017;28;20653;-67
2024/02/29 07:00:30;;;;;;;42.42;16.70;;;;;;;;;;5033113;28;20025;-67
2024/02/29 07:03:15;;;;;;;43.35;15.52;;;;;;;;;;5030979;28;20097;-66
2024/02/29 07:06:02;;;;;;;33.83;12.82;;;;;;;;;;5032984;28;20407;-68
2024/02/29 07:08:48;;;;;;;31.00;12.43;;;;;;;;;;5031714;28;20164;-67
2024/02/29 07:11:33;;;;;;;37.25;14.13;;;;;;;;;;5030988;28;20025;-67
2024/02/29 07:14:19;;;;;;;42.95;17.17;;;;;;;;;;5017580;28;20025;-67
2024/02/29 07:17:05;;;;;;;32.08;14.00;;;;;;;;;;5030974;28;20495;-67
2024/02/29 07:19:51;;;;;;;42.60;14.90;;;;;;;;;;5030547;28;20438;-67
2024/02/29 07:22:37;;;;;;;32.40;15.07;;;;;;;;;;5031142;28;20072;-67
2024/02/29 07:25:22;;;;;;;29.35;13.65;;;;;;;;;;5030325;28;20109;-67
2024/02/29 07:28:08;;;;;;;29.45;14.27;;;;;;;;;;5030875;28;20025;-67
2024/02/29 07:30:54;;;;;;;31.92;13.25;;;;;;;;;;5031198;28;20030;-67
2024/02/29 07:33:39;;;;;;;28.67;13.32;;;;;;;;;;5030253;28;20028;-67
2024/02/29 07:36:25;;;;;;;37.00;14.68;;;;;;;;;;5030841;28;20026;-67
2024/02/29 07:39:14;;;;;;;36.92;14.70;;;;;;;;;;5016381;28;20053;-67
2024/02/29 07:41:59;;;;;;;30.23;11.93;;;;;;;;;;5030755;28;20445;-67
2024/02/29 07:44:45;;;;;;;30.83;12.60;;;;;;;;;;5033643;28;20462;-67
2024/02/29 07:47:31;;;;;;;35.65;12.48;;;;;;;;;;5033984;28;20052;-68
2024/02/29 07:50:17;;;;;;;30.90;13.75;;;;;;;;;;5035422;28;20033;-67
2024/02/29 07:53:03;;;;;;;28.33;13.27;;;;;;;;;;5019945;28;20045;-67
2024/02/29 07:55:48;;;;;;;26.77;11.98;;;;;;;;;;5034203;28;20013;-67
2024/02/29 07:58:34;;;;;;;34.75;13.10;;;;;;;;;;5034082;28;20021;-67
2024/02/29 08:01:20;;;;;;;32.80;13.45;;;;;;;;;;5033707;28;20029;-67
2024/02/29 08:04:06;;;;;;;27.25;12.25;;;;;;;;;;5034374;28;20034;-67
2024/02/29 08:06:51;;;;;;;25.20;12.35;;;;;;;;;;5034058;28;20037;-67
2024/02/29 08:09:37;;;;;;;34.90;11.63;;;;;;;;;;5033572;28;20417;-67
2024/02/29 08:12:23;;;;;;;31.92;10.90;;;;;;;;;;5020736;28;20459;-68
2024/02/29 08:15:08;;;;;;;30.23;11.30;;;;;;;;;;5034428;28;20036;-67
2024/02/29 08:17:54;;;;;;;31.27;12.80;;;;;;;;;;5033641;28;20025;-67
2024/02/29 08:20:40;;;;;;;27.05;13.45;;;;;;;;;;5035514;28;20025;-67
2024/02/29 08:23:26;;;;;;;21.65;11.95;;;;;;;;;;5019219;28;20025;-68
2024/02/29 08:26:11;;;;;;;25.05;11.60;;;;;;;;;;5033678;28;20066;-67
2024/02/29 08:28:57;;;;;;;28.67;11.65;;;;;;;;;;5034803;28;20486;-67
2024/02/29 08:31:43;;;;;;;28.33;12.13;;;;;;;;;;5033095;28;20119;-67
2024/02/29 08:34:30;;;;;;;23.15;11.65;;;;;;;;;;5033954;28;20025;-67
2024/02/29 08:37:15;;;;;;;23.95;11.32;;;;;;;;;;5020896;28;20079;-67
2024/02/29 08:40:05;;;;;;;27.30;11.73;;;;;;;;;;5032772;28;20022;-67
2024/02/29 08:42:51;;;;;;;23.30;10.63;;;;;;;;;;5033313;28;20518;-67
2024/02/29 08:45:37;;;;;;;25.08;10.93;;;;;;;;;;5035118;28;20034;-67
2024/02/29 08:48:23;;;;;;;27.67;12.07;;;;;;;;;;5032906;28;20028;-67
2024/02/29 08:51:08;;;;;;;23.92;11.57;;;;;;;;;;5032937;28;20029;-68
2024/02/29 08:53:54;;;;;;;30.65;12.68;;;;;;;;;;5033584;28;20037;-68
2024/02/29 08:56:40;;;;;;;29.25;11.20;;;;;;;;;;5033248;28;20022;-67
2024/02/29 08:59:25;;;;;;;28.77;11.68;;;;;;;;;;5034408;28;20511;-68
2024/02/29 09:02:11;;;;;;;25.23;7.97;;;;;;;;;;5033958;28;20453;-67
2024/02/29 09:04:56;;;;;;;26.98;12.55;;;;;;;;;;5033224;28;20108;-68
2024/02/29 09:07:42;;;;;;;27.73;10.95;;;;;;;;;;5032968;28;20026;-68
2024/02/29 09:10:28;;;;;;;25.88;11.43;;;;;;;;;;5033991;28;20083;-67
2024/02/29 09:13:13;;;;;;;28.75;11.27;;;;;;;;;;5032832;28;20036;-68
2024/02/29 09:15:59;;;;;;;24.33;11.18;;;;;;;;;;5032158;28;20025;-67
2024/02/29 09:18:45;;;;;;;20.60;11.50;;;;;;;;;;5033520;28;20029;-68
2024/02/29 09:21:30;;;;;;;21.75;9.68;;;;;;;;;;5033778;28;20116;-67
2024/02/29 09:24:17;;;;;;;21.30;10.13;;;;;;;;;;5033515;28;20475;-68
2024/02/29 09:27:04;;;;;;;20.63;10.27;;;;;;;;;;5032131;28;20033;-68
2024/02/29 09:29:49;;;;;;;28.77;11.10;;;;;;;;;;5032650;28;20087;-68
2024/02/29 09:32:35;;;;;;;25.27;9.65;;;;;;;;;;5034787;28;20398;-69
2024/02/29 09:35:21;;;;;;;28.33;12.05;;;;;;;;;;5033470;28;20013;-68
2024/02/29 09:38:07;;;;;;;22.92;9.95;;;;;;;;;;5018792;28;20032;-68
2024/02/29 09:40:53;;;;;;;22.75;10.90;;;;;;;;;;5034058;28;20032;-68
2024/02/29 09:43:40;;;;;;;22.05;10.20;;;;;;;;;;5018741;28;20053;-68
2024/02/29 09:46:26;;;;;;;23.20;9.60;;;;;;;;;;5032892;28;20109;-67
2024/02/29 09:49:11;;;;;;;19.35;9.93;;;;;;;;;;5032873;28;20029;-68
2024/02/29 09:51:58;;;;;;;28.25;9.85;;;;;;;;;;5032316;28;20029;-68
2024/02/29 09:54:45;;;;;;;21.25;10.32;;;;;;;;;;5019519;28;20072;-69
2024/02/29 09:57:34;;;;;;;24.50;9.48;;;;;;;;;;5032409;28;20041;-68
2024/02/29 10:00:20;;;;;;;23.65;10.43;;;;;;;;;;5018982;28;20578;-68
2024/02/29 10:03:07;;;;;;;21.40;9.75;;;;;;;;;;5018497;28;20028;-68
2024/02/29 10:05:53;;;;;;;20.95;9.20;;;;;;;;;;5017339;28;20075;-67
2024/02/29 10:08:39;;;;;;;26.33;10.73;;;;;;;;;;5018200;28;20028;-68
2024/02/29 10:11:28;;;;;;;21.02;8.85;;;;;;;;;;5018266;28;20028;-68
2024/02/29 10:14:21;;;;;;;24.50;9.98;;;;;;;;;;5032780;28;20034;-68
2024/02/29 10:17:07;;;;;;;22.38;10.30;;;;;;;;;;5017579;28;20032;-68
2024/02/29 10:19:52;;;;;;;21.75;9.65;;;;;;;;;;5031837;28;20021;-68
2024/02/29 10:22:42;;;;;;;24.48;10.07;;;;;;;;;;5031917;28;20029;-68
2024/02/29 10:25:28;;;;;;;20.17;7.53;;;;;;;;;;5018391;28;20456;-68
2024/02/29 10:28:14;;;;;;;20.58;9.65;;;;;;;;;;5032102;28;20021;-68
2024/02/29 10:31:01;;;;;;;24.98;7.90;;;;;;;;;;5032109;28;20371;-68
2024/02/29 10:33:47;;;;;;;22.70;8.80;;;;;;;;;;5032285;28;20026;-68
2024/02/29 10:36:33;;;;;;;21.17;9.57;;;;;;;;;;5018762;28;20026;-68
2024/02/29 10:39:19;;;;;;;16.45;9.45;;;;;;;;;;5017698;28;20048;-68
2024/02/29 10:42:05;;;;;;;19.25;9.85;;;;;;;;;;5018358;28;20490;-68
2024/02/29 10:44:52;;;;;;;18.23;7.97;;;;;;;;;;5019241;28;20025;-68
2024/02/29 10:47:41;;;;;;;20.67;9.43;;;;;;;;;;5016331;28;20026;-68
2024/02/29 10:50:27;;;;;;;25.05;10.52;;;;;;;;;;5017186;28;20030;-68
2024/02/29 10:53:21;;;;;;;27.33;10.20;;;;;;;;;;5069478;22;20053;-68
2024/02/29 10:56:30;;;;;;;17.75;9.15;;;;;;;;;;5038689;28;20021;-68
2024/02/29 10:59:16;;;;;;;23.95;9.55;;;;;;;;;;5053509;28;20025;-68
2024/02/29 11:02:03;;;;;;;17.50;9.43;;;;;;;;;;5037662;28;20032;-68
2024/02/29 11:04:49;;;;;;;22.58;10.38;;;;;;;;;;5052769;28;20025;-68
2024/02/29 11:07:35;;;;;;;22.52;8.85;;;;;;;;;;5039239;28;20432;-68
2024/02/29 11:10:20;;;;;;;19.85;10.23;;;;;;;;;;5038861;28;20035;-68
2024/02/29 11:13:06;;;;;;;24.80;10.95;;;;;;;;;;5037948;28;20023;-68
2024/02/29 11:15:55;;;;;;;23.00;10.40;;;;;;;;;;5039572;28;20013;-68
2024/02/29 11:18:42;;;;;;;29.65;11.07;;;;;;;;;;5039510;28;20087;-68
2024/02/29 11:21:31;;;;;;;24.38;10.63;;;;;;;;;;5056970;28;20108;-68
2024/02/29 11:24:21;;;;;;;25.73;10.18;;;;;;;;;;5057482;28;20059;-69
2024/02/29 11:27:09;;;;;;;24.15;11.32;;;;;;;;;;5030041;28;20029;-68
2024/02/29 11:29:59;;;;;;;24.52;11.60;;;;;;;;;;5043338;28;20017;-68
2024/02/29 11:32:45;;;;;;;24.63;9.00;;;;;;;;;;5043562;28;20366;-68
2024/02/29 11:35:31;;;;;;;20.92;10.40;;;;;;;;;;5056191;28;20029;-68
2024/02/29 11:38:19;;;;;;;22.77;11.40;;;;;;;;;;5057237;28;20032;-68
2024/02/29 11:41:18;;;;;;;26.83;11.00;;;;;;;;;;5042985;28;20029;-68
2024/02/29 11:44:04;;;;;;;26.15;11.55;;;;;;;;;;5043081;28;20025;-69
2024/02/29 11:46:49;;;;;;;23.52;10.63;;;;;;;;;;5056756;28;20387;-68
2024/02/29 11:49:35;;;;;;;24.65;12.07;;;;;;;;;;5056929;28;20029;-68
2024/02/29 11:52:22;;;;;;;21.55;11.63;;;;;;;;;;5056709;28;20106;-68
2024/02/29 11:55:09;;;;;;;24.23;9.65;;;;;;;;;;5041502;28;20053;-68
2024/02/29 11:57:55;;;;;;;36.35;12.23;;;;;;;;;;5055884;28;20107;-68
2024/02/29 12:00:40;;;;;;;29.88;11.75;;;;;;;;;;5056657;28;20500;-69
2024/02/29 12:03:30;;;;;;;26.23;11.50;;;;;;;;;;5055351;28;20028;-68
2024/02/29 12:06:16;;;;;;;27.08;11.98;;;;;;;;;;5041707;28;20025;-68
2024/02/29 12:09:02;;;;;;;29.05;11.70;;;;;;;;;;5043321;28;20021;-68
2024/02/29 12:11:48;;;;;;;23.33;10.05;;;;;;;;;;5055320;28;20036;-68
2024/02/29 12:14:35;;;;;;;25.58;12.85;;;;;;;;;;5040246;28;20075;-68
2024/02/29 12:17:24;;;;;;;31.02;13.15;;;;;;;;;;5055408;28;20025;-68
2024/02/29 12:20:16;;;;;;;24.48;10.80;;;;;;;;;;5043005;28;20028;-68
2024/02/29 12:23:02;;;;;;;35.13;12.70;;;;;;;;;;5041772;28;20505;-69
2024/02/29 12:25:48;;;;;;;27.42;11.50;;;;;;;;;;5056116;28;20028;-68
2024/02/29 12:28:33;;;;;;;23.58;11.38;;;;;;;;;;5028498;28;20025;-68
2024/02/29 12:31:19;;;;;;;26.35;11.70;;;;;;;;;;5040754;28;20108;-68
2024/02/29 12:34:05;;;;;;;23.85;12.05;;;;;;;;;;5042390;28;20028;-68
2024/02/29 12:36:51;;;;;;;34.47;12.98;;;;;;;;;;5055498;28;20017;-68
2024/02/29 12:39:37;;;;;;;25.30;12.73;;;;;;;;;;5054737;28;20032;-68
2024/02/29 12:42:23;;;;;;;29.00;12.13;;;;;;;;;;5056232;28;20509;-68
2024/02/29 12:45:09;;;;;;;24.00;10.80;;;;;;;;;;5055703;28;20397;-68
2024/02/29 12:47:55;;;;;;;28.50;12.32;;;;;;;;;;5054844;28;20021;-68
2024/02/29 12:50:41;;;;;;;24.83;12.95;;;;;;;;;;5055953;28;20076;-68
2024/02/29 12:53:26;;;;;;;28.40;12.85;;;;;;;;;;5055496;28;20059;-68
2024/02/29 12:56:13;;;;;;;28.23;12.48;;;;;;;;;;5041939;28;20436;-68
2024/02/29 12:58:58;;;;;;;26.90;13.13;;;;;;;;;;5040980;28;20028;-68
2024/02/29 13:01:44;;;;;;;31.33;13.02;;;;;;;;;;5054532;28;20028;-68
2024/02/29 13:04:30;;;;;;;29.10;13.55;;;;;;;;;;5040245;28;20106;-68
2024/02/29 13:07:16;;;;;;;31.27;13.98;;;;;;;;;;5055218;28;20025;-69
2024/02/29 13:10:02;;;;;;;25.95;13.50;;;;;;;;;;5040363;28;20021;-68
2024/02/29 13:12:48;;;;;;;24.50;12.90;;;;;;;;;;5026929;28;20078;-68
2024/02/29 13:15:34;;;;;;;30.23;12.60;;;;;;;;;;5041546;28;20057;-68
2024/02/29 13:18:20;;;;;;;30.77;13.32;;;;;;;;;;5041319;28;20116;-68
2024/02/29 13:21:06;;;;;;;25.38;13.18;;;;;;;;;;5055781;28;20028;-68
2024/02/29 13:23:52;;;;;;;29.38;12.88;;;;;;;;;;5054742;28;20028;-68
2024/02/29 13:26:37;;;;;;;28.85;15.57;;;;;;;;;;5054011;28;20124;-68
2024/02/29 13:29:23;;;;;;;28.80;14.07;;;;;;;;;;5054027;28;20021;-68
2024/02/29 13:32:08;;;;;;;30.92;15.38;;;;;;;;;;5053808;28;20025;-68
2024/02/29 13:34:54;;;;;;;29.38;13.55;;;;;;;;;;5041343;28;20016;-68
2024/02/29 13:37:41;;;;;;;30.83;12.95;;;;;;;;;;5055085;28;20028;-68
2024/02/29 13:40:26;;;;;;;24.42;10.70;;;;;;;;;;5056163;28;20414;-68
2024/02/29 13:43:14;;;;;;;32.50;13.25;;;;;;;;;;5052025;28;20028;-68
2024/02/29 13:45:59;;;;;;;33.03;13.70;;;;;;;;;;5035423;28;20037;-68
2024/02/29 13:48:46;;;;;;;26.38;12.45;;;;;;;;;;5036445;28;20025;-68
2024/02/29 13:51:32;;;;;;;28.70;11.98;;;;;;;;;;5039737;28;20059;-68
2024/02/29 13:54:18;;;;;;;23.63;12.43;;;;;;;;;;5053480;28;20107;-68
2024/02/29 13:57:04;;;;;;;27.77;13.77;;;;;;;;;;5053299;28;20020;-68
2024/02/29 13:59:49;;;;;;;28.13;12.20;;;;;;;;;;5053545;28;20025;-68
2024/02/29 14:02:35;;;;;;;30.17;11.27;;;;;;;;;;5054479;28;20060;-69
2024/02/29 14:05:21;;;;;;;25.33;10.43;;;;;;;;;;5040539;28;20017;-68
2024/02/29 14:08:07;;;;;;;22.88;11.85;;;;;;;;;;5054330;28;20108;-68
2024/02/29 14:10:53;;;;;;;23.48;10.48;;;;;;;;;;5053740;28;20052;-68
2024/02/29 14:13:39;;;;;;;22.92;11.68;;;;;;;;;;5053922;28;20051;-68
2024/02/29 14:16:24;;;;;;;24.75;9.10;;;;;;;;;;5054323;28;20507;-68
2024/02/29 14:19:10;;;;;;;19.38;10.13;;;;;;;;;;5053692;28;20024;-68
2024/02/29 14:21:55;;;;;;;28.38;11.27;;;;;;;;;;5053425;28;20025;-68
2024/02/29 14:24:41;;;;;;;20.67;9.93;;;;;;;;;;5039395;28;20102;-68
2024/02/29 14:27:27;;;;;;;23.00;9.15;;;;;;;;;;5052985;28;20401;-68
2024/02/29 14:30:13;;;;;;;25.17;11.52;;;;;;;;;;5053997;28;20021;-68
2024/02/29 14:32:58;;;;;;;21.98;11.05;;;;;;;;;;5054131;28;20498;-68
2024/02/29 14:35:45;;;;;;;21.55;9.00;;;;;;;;;;5052774;28;20379;-68
2024/02/29 14:38:31;;;;;;;19.00;8.52;;;;;;;;;;5039136;28;20456;-68
2024/02/29 14:41:17;;;;;;;21.75;11.20;;;;;;;;;;5054116;28;20025;-68
2024/02/29 14:44:03;;;;;;;25.15;10.13;;;;;;;;;;5054629;28;20029;-68
2024/02/29 14:46:50;;;;;;;30.08;11.25;;;;;;;;;;5039251;28;20052;-68
2024/02/29 14:49:36;;;;;;;26.23;11.13;;;;;;;;;;5039271;28;20024;-68
2024/02/29 14:52:22;;;;;;;23.58;10.48;;;;;;;;;;5052742;28;20382;-68
2024/02/29 14:55:08;;;;;;;21.73;10.52;;;;;;;;;;5038806;28;20025;-68
2024/02/29 14:57:53;;;;;;;24.42;10.35;;;;;;;;;;5052702;28;20029;-68
2024/02/29 15:00:39;;;;;;;22.02;10.75;;;;;;;;;;5054025;28;20055;-68
2024/02/29 15:03:25;;;;;;;19.30;9.40;;;;;;;;;;5053529;28;20025;-68
2024/02/29 15:06:11;;;;;;;21.83;9.85;;;;;;;;;;5052637;28;20468;-68
2024/02/29 15:08:57;;;;;;;22.95;10.70;;;;;;;;;;5039261;28;20104;-68
2024/02/29 15:11:43;;;;;;;21.02;10.20;;;;;;;;;;5053548;28;20025;-68
2024/02/29 15:14:28;;;;;;;22.15;10.48;;;;;;;;;;5052602;28;20027;-69
2024/02/29 15:17:14;;;;;;;20.65;9.02;;;;;;;;;;5052684;28;20381;-68
2024/02/29 15:20:00;;;;;;;29.08;10.18;;;;;;;;;;5053015;28;20028;-68
2024/02/29 15:22:45;;;;;;;18.40;9.65;;;;;;;;;;5052344;28;20048;-69
2024/02/29 15:25:31;;;;;;;16.85;9.50;;;;;;;;;;5053058;28;20108;-68
2024/02/29 15:28:17;;;;;;;22.95;10.40;;;;;;;;;;5034140;28;20559;-68
2024/02/29 15:31:02;;;;;;;26.63;10.40;;;;;;;;;;5032684;28;20033;-68
2024/02/29 15:33:50;;;;;;;20.88;8.65;;;;;;;;;;5033498;28;20025;-68
2024/02/29 15:36:35;;;;;;;23.38;9.45;;;;;;;;;;5032833;28;20021;-68
2024/02/29 15:39:21;;;;;;;20.38;9.25;;;;;;;;;;5033445;28;20026;-68
2024/02/29 15:42:07;;;;;;;17.02;8.68;;;;;;;;;;5032998;28;20122;-68
2024/02/29 15:44:52;;;;;;;23.88;10.27;;;;;;;;;;5017976;28;20140;-68
2024/02/29 15:47:41;;;;;;;20.42;8.82;;;;;;;;;;5033347;28;20064;-68
2024/02/29 15:50:27;;;;;;;22.67;9.43;;;;;;;;;;5019201;28;20018;-68
2024/02/29 15:53:15;;;;;;;16.42;8.57;;;;;;;;;;5032433;28;20037;-68
2024/02/29 15:56:01;;;;;;;19.73;9.68;;;;;;;;;;5018781;28;20028;-68
2024/02/29 15:58:46;;;;;;;18.65;8.85;;;;;;;;;;5033080;28;20040;-68
2024/02/29 16:01:32;;;;;;;19.70;9.57;;;;;;;;;;5018319;28;20100;-68
2024/02/29 16:04:19;;;;;;;20.90;8.60;;;;;;;;;;5032865;28;20021;-68
2024/02/29 16:07:05;;;;;;;18.67;8.27;;;;;;;;;;5022229;28;20037;-67
2024/02/29 16:09:50;;;;;;;18.38;8.73;;;;;;;;;;5036108;28;20029;-68